createdAt,value
2022-11-15T00:00:07.999Z,15.70
2022-11-15T00:01:48.444Z,20.55
2022-11-15T00:02:38.861Z,23.12
2022-11-15T00:03:29.575Z,22.77
2022-11-15T00:04:20.190Z,20.95
2022-11-15T00:05:10.586Z,21.70
2022-11-15T00:06:05.256Z,19.27
2022-11-15T00:06:55.636Z,19.20
2022-11-15T00:07:55.679Z,18.62
2022-11-15T00:08:46.901Z,19.12
2022-11-15T00:09:39.042Z,18.65
2022-11-15T00:10:32.333Z,19.73
2022-11-15T00:11:22.746Z,18.83
2022-11-15T00:12:12.971Z,18.15
2022-11-15T00:13:11.381Z,17.77
2022-11-15T00:14:03.397Z,16.30
2022-11-15T00:14:53.841Z,15.52
2022-11-15T00:15:44.191Z,16.35
2022-11-15T00:16:34.458Z,16.75
2022-11-15T00:17:24.660Z,15.48
2022-11-15T00:18:16.987Z,17.10
2022-11-15T00:19:07.709Z,16.15
2022-11-15T00:19:57.964Z,15.13
2022-11-15T00:20:48.410Z,15.27
2022-11-15T00:21:38.825Z,16.87
2022-11-15T00:22:34.242Z,16.67
2022-11-15T00:23:24.416Z,16.17
2022-11-15T00:24:14.816Z,15.35
2022-11-15T00:25:05.670Z,15.23
2022-11-15T00:25:57.762Z,17.20
2022-11-15T00:26:47.926Z,16.00
2022-11-15T00:27:37.987Z,16.98
2022-11-15T00:28:28.588Z,16.75
2022-11-15T00:29:19.131Z,18.10
2022-11-15T00:30:10.049Z,17.20
2022-11-15T00:31:05.602Z,17.87
2022-11-15T00:31:55.706Z,16.92
2022-11-15T00:32:46.279Z,17.75
2022-11-15T00:33:36.633Z,16.73
2022-11-15T00:34:26.902Z,17.52
2022-11-15T00:35:17.512Z,18.52
2022-11-15T00:36:12.857Z,17.30
2022-11-15T00:37:03.030Z,17.08
2022-11-15T00:37:53.674Z,17.55
2022-11-15T00:38:43.890Z,17.10
2022-11-15T00:39:34.301Z,16.62
2022-11-15T00:40:24.831Z,17.42
2022-11-15T00:41:15.320Z,18.05
2022-11-15T00:42:05.752Z,17.35
2022-11-15T00:42:56.409Z,15.98
2022-11-15T00:43:46.570Z,17.40
2022-11-15T00:44:36.894Z,16.30
2022-11-15T00:45:27.827Z,16.98
2022-11-15T00:46:18.437Z,16.70
2022-11-15T00:47:08.804Z,16.67
2022-11-15T00:47:58.905Z,17.15
2022-11-15T00:48:49.439Z,17.10
2022-11-15T00:49:40.217Z,16.73
2022-11-15T00:50:30.523Z,16.45
2022-11-15T00:51:20.847Z,17.77
2022-11-15T00:52:11.261Z,16.00
2022-11-15T00:53:01.831Z,17.05
2022-11-15T00:53:52.291Z,16.50
2022-11-15T00:54:42.691Z,17.75
2022-11-15T00:55:33.250Z,18.40
2022-11-15T00:56:23.369Z,17.08
2022-11-15T00:57:13.778Z,19.00
2022-11-15T00:58:04.239Z,17.37
2022-11-15T00:58:55.008Z,20.80
2022-11-15T00:59:45.141Z,19.90
2022-11-15T01:00:35.735Z,21.08
2022-11-15T01:01:25.965Z,20.67
2022-11-15T01:02:15.989Z,20.02
2022-11-15T01:03:06.161Z,21.23
2022-11-15T01:04:01.038Z,20.30
2022-11-15T01:04:51.912Z,21.17
2022-11-15T01:05:42.241Z,21.80
2022-11-15T01:06:32.379Z,22.20
2022-11-15T01:07:22.696Z,20.65
2022-11-15T01:08:16.879Z,21.00
2022-11-15T01:09:07.292Z,20.85
2022-11-15T01:09:57.878Z,20.90
2022-11-15T01:10:48.207Z,20.70
2022-11-15T01:11:38.401Z,21.75
2022-11-15T01:12:28.740Z,21.15
2022-11-15T01:13:19.241Z,20.50
2022-11-15T01:14:09.657Z,19.10
2022-11-15T01:14:59.994Z,19.58
2022-11-15T01:15:50.730Z,20.08
2022-11-15T01:16:41.313Z,19.62
2022-11-15T01:17:31.896Z,19.83
2022-11-15T01:18:21.977Z,19.33
2022-11-15T01:19:12.537Z,19.55
2022-11-15T01:20:03.143Z,18.73
2022-11-15T01:20:53.446Z,19.45
2022-11-15T01:21:44.065Z,19.17
2022-11-15T01:22:34.464Z,19.48
2022-11-15T01:23:24.559Z,18.50
2022-11-15T01:24:15.054Z,19.48
2022-11-15T01:25:05.693Z,20.17
2022-11-15T01:26:01.260Z,18.37
2022-11-15T01:26:51.941Z,19.65
2022-11-15T01:27:42.121Z,21.80
2022-11-15T01:28:34.239Z,19.87
2022-11-15T01:29:24.406Z,21.02
2022-11-15T01:30:15.423Z,20.73
2022-11-15T01:31:13.929Z,18.62
2022-11-15T01:32:04.448Z,20.17
2022-11-15T01:32:54.712Z,21.02
2022-11-15T01:33:45.866Z,19.12
2022-11-15T01:34:35.966Z,20.65
2022-11-15T01:35:26.447Z,21.02
2022-11-15T01:36:22.832Z,20.62
2022-11-15T01:37:13.196Z,21.62
2022-11-15T01:38:03.713Z,20.75
2022-11-15T01:38:56.290Z,20.17
2022-11-15T01:39:46.712Z,20.50
2022-11-15T01:40:37.264Z,21.17
2022-11-15T01:41:30.872Z,20.33
2022-11-15T01:42:21.224Z,20.45
2022-11-15T01:43:25.833Z,19.40
2022-11-15T01:44:34.409Z,19.85
2022-11-15T01:45:24.534Z,21.00
2022-11-15T01:46:35.802Z,21.00
2022-11-15T01:47:34.454Z,20.02
2022-11-15T01:48:29.741Z,21.05
2022-11-15T01:49:22.391Z,20.20
2022-11-15T01:50:16.658Z,21.15
2022-11-15T01:51:13.981Z,21.70
2022-11-15T01:52:08.312Z,20.30
2022-11-15T01:52:58.848Z,19.80
2022-11-15T01:53:52.688Z,20.25
2022-11-15T01:54:43.988Z,19.65
2022-11-15T01:55:34.420Z,20.60
2022-11-15T01:56:30.900Z,20.55
2022-11-15T01:57:21.687Z,20.12
2022-11-15T01:58:11.792Z,19.45
2022-11-15T01:59:05.445Z,20.75
2022-11-15T01:59:56.348Z,19.75
2022-11-15T02:00:46.782Z,20.42
2022-11-15T02:01:38.011Z,19.37
2022-11-15T02:02:28.465Z,21.50
2022-11-15T02:03:20.050Z,20.92
2022-11-15T02:04:17.625Z,20.95
2022-11-15T02:05:08.248Z,20.73
2022-11-15T02:05:58.978Z,19.50
2022-11-15T02:06:49.897Z,19.60
2022-11-15T02:07:40.737Z,20.80
2022-11-15T02:08:30.740Z,20.70
2022-11-15T02:09:21.266Z,20.12
2022-11-15T02:10:37.809Z,20.25
2022-11-15T02:11:28.806Z,20.90
2022-11-15T02:12:22.843Z,21.10
2022-11-15T02:13:14.288Z,19.87
2022-11-15T02:14:06.480Z,19.33
2022-11-15T02:14:57.588Z,20.17
2022-11-15T02:16:16.677Z,20.52
2022-11-15T02:17:46.559Z,19.98
2022-11-15T02:18:48.264Z,21.42
2022-11-15T02:19:47.358Z,20.85
2022-11-15T02:20:53.677Z,21.40
2022-11-15T02:21:47.753Z,23.10
2022-11-15T02:22:54.218Z,22.30
2022-11-15T02:24:14.635Z,21.58
2022-11-15T02:25:13.089Z,21.77
2022-11-15T02:26:19.007Z,20.90
2022-11-15T02:27:36.214Z,20.62
2022-11-15T02:28:51.153Z,21.83
2022-11-15T02:30:03.849Z,22.20
2022-11-15T02:30:58.388Z,20.73
2022-11-15T02:32:21.708Z,21.37
2022-11-15T02:33:28.536Z,22.90
2022-11-15T02:34:19.119Z,22.27
2022-11-15T02:35:53.494Z,22.08
2022-11-15T02:37:02.384Z,21.58
2022-11-15T02:37:59.528Z,23.33
2022-11-15T02:38:59.561Z,22.33
2022-11-15T02:40:18.423Z,21.98
2022-11-15T02:41:21.934Z,21.58
2022-11-15T02:42:40.790Z,21.60
2022-11-15T02:43:59.979Z,22.40
2022-11-15T02:44:51.682Z,22.10
2022-11-15T02:45:49.287Z,21.62
2022-11-15T02:47:06.226Z,22.58
2022-11-15T02:48:00.042Z,22.08
2022-11-15T02:48:50.920Z,21.75
2022-11-15T02:50:21.277Z,20.25
2022-11-15T02:51:13.874Z,22.55
2022-11-15T02:52:04.742Z,22.23
2022-11-15T02:52:55.349Z,20.25
2022-11-15T02:53:45.529Z,21.48
2022-11-15T02:54:36.429Z,22.50
2022-11-15T02:55:34.039Z,21.33
2022-11-15T02:56:24.584Z,21.33
2022-11-15T02:57:19.714Z,21.02
2022-11-15T02:58:21.482Z,20.83
2022-11-15T02:59:30.099Z,20.77
2022-11-15T03:00:21.797Z,20.15
2022-11-15T03:01:43.188Z,19.75
2022-11-15T03:02:45.809Z,21.20
2022-11-15T03:03:46.439Z,21.35
2022-11-15T03:05:02.701Z,21.62
2022-11-15T03:06:08.003Z,21.37
2022-11-15T03:07:27.220Z,20.90
2022-11-15T03:08:33.799Z,20.48
2022-11-15T03:09:26.691Z,20.75
2022-11-15T03:10:32.532Z,21.33
2022-11-15T03:11:24.615Z,20.05
2022-11-15T03:12:31.211Z,21.23
2022-11-15T03:13:32.530Z,20.45
2022-11-15T03:14:30.386Z,21.42
2022-11-15T03:15:45.282Z,19.92
2022-11-15T03:16:45.083Z,19.67
2022-11-15T03:18:05.945Z,20.92
2022-11-15T03:19:13.028Z,20.37
2022-11-15T03:20:06.634Z,22.67
2022-11-15T03:21:00.885Z,19.42
2022-11-15T03:21:52.444Z,20.02
2022-11-15T03:22:47.857Z,19.85
2022-11-15T03:23:40.103Z,19.90
2022-11-15T03:24:35.282Z,19.85
2022-11-15T03:25:27.955Z,19.92
2022-11-15T03:26:21.085Z,19.83
2022-11-15T03:27:16.643Z,18.75
2022-11-15T03:28:10.494Z,19.52
2022-11-15T03:29:13.590Z,20.15
2022-11-15T03:30:07.180Z,18.80
2022-11-15T03:30:59.531Z,19.67
2022-11-15T03:31:59.844Z,20.30
2022-11-15T03:32:59.065Z,19.60
2022-11-15T03:33:52.600Z,20.27
2022-11-15T03:34:48.627Z,17.87
2022-11-15T03:35:43.572Z,18.55
2022-11-15T03:36:35.788Z,19.67
2022-11-15T03:37:33.742Z,18.85
2022-11-15T03:38:27.010Z,19.12
2022-11-15T03:39:20.644Z,18.42
2022-11-15T03:40:11.927Z,19.17
2022-11-15T03:41:07.432Z,17.50
2022-11-15T03:42:00.464Z,18.40
2022-11-15T03:43:20.173Z,19.48
2022-11-15T03:44:24.427Z,19.60
2022-11-15T03:45:14.404Z,19.00
2022-11-15T03:46:14.300Z,19.67
2022-11-15T03:47:12.927Z,18.17
2022-11-15T03:48:11.412Z,18.83
2022-11-15T03:49:15.254Z,18.60
2022-11-15T03:50:15.426Z,18.10
2022-11-15T03:51:06.534Z,17.65
2022-11-15T03:51:59.278Z,18.55
2022-11-15T03:52:50.999Z,19.42
2022-11-15T03:53:42.367Z,18.60
2022-11-15T03:54:32.981Z,19.52
2022-11-15T03:55:23.794Z,18.90
2022-11-15T03:56:14.161Z,18.35
2022-11-15T03:57:04.648Z,17.67
2022-11-15T03:57:58.720Z,18.77
2022-11-15T03:58:48.915Z,18.37
2022-11-15T03:59:39.189Z,17.35
2022-11-15T04:00:30.208Z,17.70
2022-11-15T04:01:20.686Z,18.00
2022-11-15T04:02:11.042Z,17.67
2022-11-15T04:03:01.512Z,18.77
2022-11-15T04:03:51.751Z,17.23
2022-11-15T04:04:42.342Z,17.58
2022-11-15T04:05:32.458Z,17.42
2022-11-15T04:06:22.907Z,17.55
2022-11-15T04:07:13.328Z,17.58
2022-11-15T04:08:04.686Z,17.62
2022-11-15T04:08:54.823Z,17.12
2022-11-15T04:10:03.163Z,17.30
2022-11-15T04:10:53.510Z,16.33
2022-11-15T04:11:43.746Z,16.42
2022-11-15T04:12:37.336Z,17.35
2022-11-15T04:13:27.339Z,16.35
2022-11-15T04:14:17.877Z,16.87
2022-11-15T04:15:10.148Z,17.15
2022-11-15T04:16:00.160Z,16.73
2022-11-15T04:16:50.546Z,15.88
2022-11-15T04:17:43.830Z,17.90
2022-11-15T04:18:34.570Z,18.67
2022-11-15T04:19:43.301Z,18.48
2022-11-15T04:20:52.186Z,18.10
2022-11-15T04:22:01.018Z,17.58
2022-11-15T04:23:14.619Z,18.12
2022-11-15T04:24:13.833Z,18.27
2022-11-15T04:25:04.323Z,18.52
2022-11-15T04:25:56.662Z,20.23
2022-11-15T04:26:47.122Z,19.23
2022-11-15T04:27:37.334Z,19.17
2022-11-15T04:28:27.663Z,18.92
2022-11-15T04:29:36.065Z,19.10
2022-11-15T04:30:26.358Z,19.23
2022-11-15T04:31:16.968Z,18.75
2022-11-15T04:32:08.196Z,17.65
2022-11-15T04:32:58.674Z,16.58
2022-11-15T04:33:49.154Z,17.35
2022-11-15T04:34:39.500Z,17.55
2022-11-15T04:35:30.231Z,17.65
2022-11-15T04:36:39.577Z,17.50
2022-11-15T04:37:30.029Z,17.45
2022-11-15T04:38:20.404Z,17.15
2022-11-15T04:39:11.319Z,16.42
2022-11-15T04:40:01.836Z,16.50
2022-11-15T04:40:52.037Z,16.73
2022-11-15T04:41:42.517Z,16.75
2022-11-15T04:42:32.969Z,16.40
2022-11-15T04:43:23.315Z,17.77
2022-11-15T04:44:13.854Z,18.23
2022-11-15T04:45:04.575Z,17.87
2022-11-15T04:45:54.607Z,17.50
2022-11-15T04:46:45.036Z,18.65
2022-11-15T04:47:35.398Z,16.98
2022-11-15T04:48:25.941Z,17.35
2022-11-15T04:49:16.426Z,17.55
2022-11-15T04:50:07.211Z,17.53
2022-11-15T04:50:57.734Z,18.05
2022-11-15T04:51:47.946Z,16.05
2022-11-15T04:52:38.193Z,17.73
2022-11-15T04:53:28.643Z,16.85
2022-11-15T04:54:18.997Z,16.58
2022-11-15T04:55:12.768Z,17.12
2022-11-15T04:56:03.322Z,16.95
2022-11-15T04:56:53.375Z,17.83
2022-11-15T04:57:43.815Z,18.10
2022-11-15T04:58:34.775Z,17.10
2022-11-15T04:59:25.248Z,16.67
2022-11-15T05:00:18.333Z,15.95
2022-11-15T05:01:15.623Z,16.77
2022-11-15T05:02:05.898Z,15.23
2022-11-15T05:03:16.108Z,17.77
2022-11-15T05:04:21.603Z,17.83
2022-11-15T05:05:11.742Z,18.10
2022-11-15T05:06:02.641Z,17.00
2022-11-15T05:06:53.231Z,17.87
2022-11-15T05:07:43.867Z,17.35
2022-11-15T05:08:34.262Z,16.87
2022-11-15T05:09:24.496Z,17.15
2022-11-15T05:10:14.705Z,17.12
2022-11-15T05:11:06.781Z,16.25
2022-11-15T05:11:56.823Z,17.00
2022-11-15T05:12:47.737Z,16.87
2022-11-15T05:13:38.230Z,17.58
2022-11-15T05:14:30.231Z,15.80
2022-11-15T05:15:20.473Z,17.50
2022-11-15T05:16:10.778Z,18.42
2022-11-15T05:17:01.325Z,17.17
2022-11-15T05:17:51.850Z,17.42
2022-11-15T05:18:42.633Z,16.85
2022-11-15T05:19:33.442Z,16.58
2022-11-15T05:20:23.835Z,17.08
2022-11-15T05:21:15.885Z,16.62
2022-11-15T05:22:06.235Z,17.90
2022-11-15T05:22:56.934Z,16.00
2022-11-15T05:23:47.320Z,17.98
2022-11-15T05:24:37.750Z,16.65
2022-11-15T05:25:28.320Z,16.25
2022-11-15T05:26:19.567Z,17.50
2022-11-15T05:27:10.026Z,17.73
2022-11-15T05:28:01.035Z,16.98
2022-11-15T05:28:56.387Z,17.70
2022-11-15T05:29:46.658Z,18.75
2022-11-15T05:30:37.086Z,17.87
2022-11-15T05:31:28.298Z,18.00
2022-11-15T05:32:19.132Z,17.90
2022-11-15T05:34:02.126Z,16.05
2022-11-15T05:34:52.680Z,17.35
2022-11-15T05:35:49.844Z,17.12
2022-11-15T05:36:43.694Z,15.57
2022-11-15T05:37:33.734Z,16.33
2022-11-15T05:38:24.697Z,17.02
2022-11-15T05:39:15.292Z,15.80
2022-11-15T05:40:06.253Z,16.35
2022-11-15T05:40:56.480Z,17.05
2022-11-15T05:42:14.509Z,17.02
2022-11-15T05:43:06.137Z,17.12
2022-11-15T05:43:56.753Z,15.23
2022-11-15T05:44:50.621Z,16.52
2022-11-15T05:45:40.862Z,16.12
2022-11-15T05:46:31.373Z,16.92
2022-11-15T05:47:25.463Z,16.50
2022-11-15T05:48:16.132Z,16.83
2022-11-15T05:49:10.311Z,16.52
2022-11-15T05:50:01.291Z,17.12
2022-11-15T05:50:52.451Z,16.65
2022-11-15T05:51:44.570Z,17.02
2022-11-15T05:52:38.271Z,17.23
2022-11-15T05:53:28.920Z,16.45
2022-11-15T05:54:22.222Z,17.08
2022-11-15T05:55:12.790Z,16.23
2022-11-15T05:56:05.195Z,17.75
2022-11-15T05:56:56.823Z,17.10
2022-11-15T05:57:47.254Z,16.65
2022-11-15T05:58:38.385Z,17.08
2022-11-15T05:59:33.657Z,17.05
2022-11-15T06:00:23.944Z,16.60
2022-11-15T06:01:14.342Z,17.50
2022-11-15T06:02:04.648Z,16.90
2022-11-15T06:02:55.115Z,15.88
2022-11-15T06:03:45.602Z,17.10
2022-11-15T06:04:36.047Z,15.63
2022-11-15T06:05:26.475Z,16.90
2022-11-15T06:06:16.972Z,16.87
2022-11-15T06:07:07.538Z,16.85
2022-11-15T06:08:01.188Z,16.90
2022-11-15T06:08:51.829Z,17.17
2022-11-15T06:09:41.933Z,15.65
2022-11-15T06:10:31.895Z,16.95
2022-11-15T06:11:22.060Z,16.70
2022-11-15T06:12:12.472Z,17.30
2022-11-15T06:13:04.954Z,16.25
2022-11-15T06:13:55.703Z,17.50
2022-11-15T06:14:46.015Z,17.95
2022-11-15T06:15:36.236Z,17.58
2022-11-15T06:16:26.701Z,17.20
2022-11-15T06:17:17.195Z,17.05
2022-11-15T06:18:07.690Z,17.08
2022-11-15T06:18:58.231Z,17.52
2022-11-15T06:19:48.694Z,16.70
2022-11-15T06:20:39.164Z,15.90
2022-11-15T06:21:30.221Z,17.02
2022-11-15T06:22:20.567Z,18.15
2022-11-15T06:23:11.077Z,17.65
2022-11-15T06:24:01.174Z,16.87
2022-11-15T06:24:51.224Z,17.77
2022-11-15T06:25:41.459Z,16.90
2022-11-15T06:26:32.718Z,18.40
2022-11-15T06:27:23.053Z,17.25
2022-11-15T06:28:13.584Z,18.02
2022-11-15T06:29:05.531Z,17.83
2022-11-15T06:29:55.924Z,17.17
2022-11-15T06:30:50.525Z,15.73
2022-11-15T06:31:43.317Z,17.70
2022-11-15T06:32:33.861Z,17.58
2022-11-15T06:33:24.345Z,17.33
2022-11-15T06:34:14.811Z,17.62
2022-11-15T06:35:05.723Z,16.75
2022-11-15T06:35:56.490Z,17.08
2022-11-15T06:36:46.978Z,19.08
2022-11-15T06:37:37.069Z,18.65
2022-11-15T06:38:27.558Z,17.55
2022-11-15T06:39:17.996Z,18.27
2022-11-15T06:40:09.628Z,17.40
2022-11-15T06:41:09.975Z,19.02
2022-11-15T06:42:00.576Z,18.75
2022-11-15T06:42:50.693Z,17.70
2022-11-15T06:43:41.705Z,19.17
2022-11-15T06:44:32.079Z,18.45
2022-11-15T06:45:22.986Z,17.12
2022-11-15T06:46:13.259Z,17.65
2022-11-15T06:47:03.570Z,17.48
2022-11-15T06:47:54.502Z,17.48
2022-11-15T06:48:44.732Z,18.60
2022-11-15T06:49:34.767Z,16.62
2022-11-15T06:50:25.540Z,17.27
2022-11-15T06:51:16.708Z,17.00
2022-11-15T06:52:07.269Z,16.20
2022-11-15T06:53:02.951Z,17.85
2022-11-15T06:53:53.195Z,17.45
2022-11-15T06:54:43.764Z,16.62
2022-11-15T06:55:33.904Z,16.58
2022-11-15T06:56:23.968Z,17.73
2022-11-15T06:57:14.487Z,16.70
2022-11-15T06:58:04.888Z,16.83
2022-11-15T06:58:56.435Z,16.92
2022-11-15T06:59:46.602Z,16.83
2022-11-15T07:00:37.596Z,16.75
2022-11-15T07:01:28.042Z,16.75
2022-11-15T07:02:18.468Z,18.45
2022-11-15T07:03:09.236Z,16.92
2022-11-15T07:03:59.676Z,16.65
2022-11-15T07:04:50.169Z,17.45
2022-11-15T07:05:40.538Z,20.30
2022-11-15T07:06:30.627Z,19.20
2022-11-15T07:07:20.745Z,29.40
2022-11-15T07:08:11.156Z,24.90
2022-11-15T07:09:03.672Z,17.75
2022-11-15T07:09:54.151Z,15.13
2022-11-15T07:10:44.463Z,16.33
2022-11-15T07:11:34.897Z,16.48
2022-11-15T07:12:25.467Z,15.15
2022-11-15T07:13:15.680Z,16.10
2022-11-15T07:14:05.988Z,17.15
2022-11-15T07:14:56.458Z,17.05
2022-11-15T07:15:46.910Z,17.05
2022-11-15T07:16:38.203Z,17.05
2022-11-15T07:17:28.670Z,17.12
2022-11-15T07:18:19.129Z,16.75
2022-11-15T07:19:10.168Z,16.48
2022-11-15T07:20:00.226Z,16.87
2022-11-15T07:20:50.576Z,18.43
2022-11-15T07:21:40.934Z,18.70
2022-11-15T07:22:31.052Z,17.23
2022-11-15T07:23:21.601Z,17.60
2022-11-15T07:24:12.025Z,16.95
2022-11-15T07:25:02.352Z,16.62
2022-11-15T07:25:52.713Z,18.15
2022-11-15T07:26:43.424Z,17.87
2022-11-15T07:27:34.234Z,17.90
2022-11-15T07:28:24.914Z,17.37
2022-11-15T07:29:15.498Z,16.08
2022-11-15T07:30:06.668Z,16.48
2022-11-15T07:30:57.094Z,16.62
2022-11-15T07:31:47.751Z,20.02
2022-11-15T07:32:37.794Z,18.02
2022-11-15T07:33:27.974Z,17.05
2022-11-15T07:34:18.256Z,19.00
2022-11-15T07:35:08.443Z,17.85
2022-11-15T07:36:07.217Z,17.05
2022-11-15T07:36:57.315Z,18.02
2022-11-15T07:37:58.529Z,17.40
2022-11-15T07:38:48.756Z,17.65
2022-11-15T07:39:39.333Z,17.00
2022-11-15T07:40:31.588Z,20.02
2022-11-15T07:41:21.836Z,19.83
2022-11-15T07:42:30.561Z,18.67
2022-11-15T07:43:20.994Z,21.85
2022-11-15T07:44:11.608Z,22.65
2022-11-15T07:45:02.014Z,18.87
2022-11-15T07:45:57.545Z,18.70
2022-11-15T07:46:49.395Z,25.40
2022-11-15T07:47:39.830Z,27.23
2022-11-15T07:48:42.816Z,34.20
2022-11-15T07:49:34.295Z,30.85
2022-11-15T07:50:25.491Z,28.73
2022-11-15T07:51:17.604Z,28.12
2022-11-15T07:52:07.926Z,29.20
2022-11-15T07:53:00.279Z,28.87
2022-11-15T07:53:50.610Z,29.63
2022-11-15T07:54:41.164Z,28.42
2022-11-15T07:55:31.499Z,27.87
2022-11-15T07:56:21.867Z,25.45
2022-11-15T07:57:12.464Z,28.00
2022-11-15T07:58:07.072Z,21.90
2022-11-15T07:58:58.519Z,24.05
2022-11-15T07:59:48.734Z,23.38
2022-11-15T08:00:39.943Z,23.20
2022-11-15T08:01:30.173Z,21.92
2022-11-15T08:02:20.706Z,20.83
2022-11-15T08:03:13.337Z,20.98
2022-11-15T08:04:03.894Z,20.52
2022-11-15T08:04:54.324Z,18.05
2022-11-15T08:05:50.910Z,19.20
2022-11-15T08:06:40.946Z,18.87
2022-11-15T08:07:32.491Z,19.65
2022-11-15T08:08:22.848Z,19.23
2022-11-15T08:09:13.345Z,19.58
2022-11-15T08:10:04.949Z,18.62
2022-11-15T08:10:55.085Z,19.83
2022-11-15T08:11:45.722Z,18.45
2022-11-15T08:12:36.195Z,18.95
2022-11-15T08:13:26.442Z,19.08
2022-11-15T08:14:16.791Z,18.75
2022-11-15T08:15:07.563Z,18.62
2022-11-15T08:16:01.872Z,20.17
2022-11-15T08:16:53.517Z,18.23
2022-11-15T08:17:43.776Z,18.30
2022-11-15T08:18:34.598Z,18.87
2022-11-15T08:19:25.021Z,19.35
2022-11-15T08:20:15.655Z,17.52
2022-11-15T08:21:06.286Z,17.05
2022-11-15T08:21:56.491Z,18.48
2022-11-15T08:22:46.516Z,18.05
2022-11-15T08:23:37.821Z,17.83
2022-11-15T08:24:28.003Z,17.92
2022-11-15T08:25:18.580Z,18.33
2022-11-15T08:26:09.690Z,17.05
2022-11-15T08:26:59.901Z,17.35
2022-11-15T08:27:56.592Z,15.70
2022-11-15T08:28:47.099Z,15.32
2022-11-15T08:29:37.498Z,15.50
2022-11-15T08:30:29.168Z,17.02
2022-11-15T08:31:20.221Z,17.05
2022-11-15T08:32:10.945Z,17.52
2022-11-15T08:33:01.220Z,17.05
2022-11-15T08:33:51.698Z,17.08
2022-11-15T08:34:42.342Z,15.82
2022-11-15T08:35:32.870Z,17.05
2022-11-15T08:36:23.283Z,19.00
2022-11-15T08:37:13.866Z,17.77
2022-11-15T08:38:04.303Z,17.87
2022-11-15T08:38:54.528Z,19.58
2022-11-15T08:39:44.885Z,18.92
2022-11-15T08:40:35.800Z,16.27
2022-11-15T08:41:32.184Z,18.30
2022-11-15T08:42:22.437Z,18.08
2022-11-15T08:43:12.841Z,18.40
2022-11-15T08:44:03.557Z,17.35
2022-11-15T08:44:53.773Z,18.58
2022-11-15T08:45:45.187Z,16.85
2022-11-15T08:46:35.298Z,15.90
2022-11-15T08:47:25.537Z,15.80
2022-11-15T08:48:15.979Z,16.50
2022-11-15T08:49:06.096Z,16.30
2022-11-15T08:49:56.534Z,16.58
2022-11-15T08:50:46.933Z,16.15
2022-11-15T08:51:37.594Z,16.87
2022-11-15T08:52:28.839Z,16.70
2022-11-15T08:53:18.885Z,17.08
2022-11-15T08:54:09.159Z,17.85
2022-11-15T08:54:59.707Z,17.10
2022-11-15T08:55:49.870Z,18.23
2022-11-15T08:56:40.196Z,15.60
2022-11-15T08:57:31.471Z,17.23
2022-11-15T08:59:12.164Z,17.90
2022-11-15T09:00:02.781Z,16.00
2022-11-15T09:00:53.054Z,16.48
2022-11-15T09:01:43.517Z,17.23
2022-11-15T09:02:33.891Z,17.85
2022-11-15T09:03:24.459Z,18.40
2022-11-15T09:04:14.909Z,17.65
2022-11-15T09:05:06.044Z,17.27
2022-11-15T09:06:01.020Z,16.85
2022-11-15T09:06:51.214Z,17.55
2022-11-15T09:07:41.436Z,17.52
2022-11-15T09:08:47.169Z,17.55
2022-11-15T09:09:39.154Z,17.73
2022-11-15T09:11:21.350Z,17.90
2022-11-15T09:12:12.060Z,17.75
2022-11-15T09:13:02.534Z,16.05
2022-11-15T09:13:52.688Z,16.40
2022-11-15T09:14:43.725Z,16.25
2022-11-15T09:15:34.040Z,16.58
2022-11-15T09:16:24.207Z,17.00
2022-11-15T09:17:14.544Z,17.20
2022-11-15T09:18:04.925Z,18.37
2022-11-15T09:18:55.722Z,18.17
2022-11-15T09:19:45.908Z,16.80
2022-11-15T09:20:36.272Z,18.15
2022-11-15T09:21:26.566Z,19.65
2022-11-15T09:22:17.384Z,17.58
2022-11-15T09:23:08.182Z,18.10
2022-11-15T09:23:58.831Z,18.20
2022-11-15T09:24:49.172Z,17.90
2022-11-15T09:25:39.645Z,17.12
2022-11-15T09:26:30.045Z,16.87
2022-11-15T09:27:20.555Z,17.00
2022-11-15T09:28:11.020Z,16.37
2022-11-15T09:29:02.399Z,16.08
2022-11-15T09:29:52.916Z,16.40
2022-11-15T09:30:43.324Z,16.10
2022-11-15T09:31:33.862Z,17.60
2022-11-15T09:32:25.125Z,16.02
2022-11-15T09:33:15.866Z,16.25
2022-11-15T09:34:06.395Z,16.67
2022-11-15T09:34:56.825Z,16.27
2022-11-15T09:35:46.885Z,15.95
2022-11-15T09:36:37.299Z,16.48
2022-11-15T09:37:27.852Z,15.70
2022-11-15T09:38:19.288Z,16.70
2022-11-15T09:39:09.165Z,16.08
2022-11-15T09:39:59.600Z,17.37
2022-11-15T09:41:00.815Z,16.90
2022-11-15T09:41:58.170Z,19.10
2022-11-15T09:42:55.878Z,16.85
2022-11-15T09:43:54.901Z,17.92
2022-11-15T09:44:53.665Z,16.83
2022-11-15T09:46:13.615Z,17.60
2022-11-15T09:46:59.493Z,18.08
2022-11-15T09:47:50.483Z,16.90
2022-11-15T09:48:23.669Z,17.85
2022-11-15T09:48:58.463Z,18.20
2022-11-15T09:49:32.223Z,18.05
2022-11-15T09:50:11.809Z,17.35
2022-11-15T09:50:49.054Z,17.95
2022-11-15T09:51:36.907Z,18.33
2022-11-15T09:52:11.178Z,17.62
2022-11-15T09:52:45.903Z,16.37
2022-11-15T09:53:50.759Z,16.80
2022-11-15T09:54:52.687Z,16.58
2022-11-15T09:55:41.936Z,16.12
2022-11-15T09:56:21.864Z,17.10
2022-11-15T09:56:54.508Z,16.80
2022-11-15T09:57:38.046Z,17.73
2022-11-15T09:58:26.094Z,17.02
2022-11-15T09:59:06.216Z,18.10
2022-11-15T09:59:50.129Z,16.75
2022-11-15T10:00:47.196Z,16.48
2022-11-15T10:01:39.412Z,17.87
2022-11-15T10:02:17.216Z,15.90
2022-11-15T10:03:34.427Z,17.75
2022-11-15T10:04:10.751Z,16.55
2022-11-15T10:04:44.783Z,17.20
2022-11-15T10:05:21.222Z,17.30
2022-11-15T10:05:56.488Z,17.20
2022-11-15T10:06:28.767Z,17.12
2022-11-15T10:07:29.729Z,17.37
2022-11-15T10:08:19.210Z,16.40
2022-11-15T10:09:50.099Z,15.57
2022-11-15T10:10:47.879Z,16.55
2022-11-15T10:11:38.237Z,16.27
2022-11-15T10:12:48.885Z,16.55
2022-11-15T10:13:26.546Z,17.70
2022-11-15T10:14:02.830Z,16.50
2022-11-15T10:14:36.632Z,18.05
2022-11-15T10:15:15.889Z,18.23
2022-11-15T10:15:49.434Z,17.25
2022-11-15T10:16:34.504Z,17.17
2022-11-15T10:18:07.310Z,17.17
2022-11-15T10:19:07.724Z,17.40
2022-11-15T10:20:05.359Z,16.10
2022-11-15T10:20:49.209Z,16.17
2022-11-15T10:21:26.128Z,17.37
2022-11-15T10:22:16.942Z,16.45
2022-11-15T10:22:55.059Z,17.52
2022-11-15T10:23:28.807Z,16.80
2022-11-15T10:24:00.968Z,17.58
2022-11-15T10:24:40.791Z,17.67
2022-11-15T10:25:26.139Z,16.97
2022-11-15T10:26:06.444Z,17.37
2022-11-15T10:27:17.639Z,16.77
2022-11-15T10:27:56.493Z,16.35
2022-11-15T10:28:31.754Z,17.42
2022-11-15T10:29:04.285Z,18.12
2022-11-15T10:29:36.252Z,17.27
2022-11-15T10:30:18.266Z,16.30
2022-11-15T10:30:53.470Z,16.52
2022-11-15T10:31:41.969Z,15.95
2022-11-15T10:32:16.278Z,16.50
2022-11-15T10:32:50.506Z,16.37
2022-11-15T10:33:26.606Z,17.70
2022-11-15T10:34:14.950Z,17.25
2022-11-15T10:34:48.816Z,19.40
2022-11-15T10:35:31.623Z,20.58
2022-11-15T10:36:09.675Z,20.10
2022-11-15T10:36:56.239Z,21.48
2022-11-15T10:37:33.099Z,28.15
2022-11-15T10:38:10.157Z,31.80
2022-11-15T10:38:50.988Z,27.23
2022-11-15T10:39:23.441Z,26.23
2022-11-15T10:40:24.287Z,22.08
2022-11-15T10:41:08.362Z,19.85
2022-11-15T10:41:42.782Z,18.60
2022-11-15T10:42:29.496Z,19.62
2022-11-15T10:43:10.597Z,24.73
2022-11-15T10:43:43.033Z,21.67
2022-11-15T10:44:17.788Z,22.65
2022-11-15T10:44:49.641Z,23.52
2022-11-15T10:45:31.435Z,23.02
2022-11-15T10:47:39.301Z,18.27
2022-11-15T10:48:14.353Z,18.48
2022-11-15T10:48:46.334Z,18.23
2022-11-15T10:49:22.728Z,17.17
2022-11-15T10:49:57.899Z,18.40
2022-11-15T10:50:33.849Z,20.55
2022-11-15T10:51:30.869Z,17.62
2022-11-15T10:52:21.477Z,18.23
2022-11-15T10:52:53.724Z,16.58
2022-11-15T10:53:42.894Z,16.48
2022-11-15T10:54:25.821Z,19.15
2022-11-15T10:55:03.662Z,18.92
2022-11-15T10:55:36.256Z,17.85
2022-11-15T10:56:13.007Z,18.15
2022-11-15T10:56:51.789Z,17.55
2022-11-15T10:57:27.079Z,18.37
2022-11-15T10:58:48.167Z,17.83
2022-11-15T10:59:37.648Z,17.62
2022-11-15T11:00:10.912Z,19.65
2022-11-15T11:00:43.863Z,18.27
2022-11-15T11:01:22.955Z,17.85
2022-11-15T11:01:55.278Z,19.52
2022-11-15T11:02:48.402Z,18.65
2022-11-15T11:03:40.695Z,18.15
2022-11-15T11:04:12.522Z,19.92
2022-11-15T11:04:51.710Z,19.75
2022-11-15T11:05:42.562Z,19.12
2022-11-15T11:06:19.255Z,18.50
2022-11-15T11:06:59.111Z,19.73
2022-11-15T11:07:33.475Z,18.98
2022-11-15T11:08:17.636Z,20.00
2022-11-15T11:09:05.670Z,19.60
2022-11-15T11:09:43.669Z,18.52
2022-11-15T11:11:13.182Z,18.33